sensor_id;sensor_type;location;lat;lon;timestamp;temperature;humidity
19970;DHT22;10146;47.754;9.566;2023-07-28T00:02:11;14.60;99.90
19970;DHT22;10146;47.754;9.566;2023-07-28T00:04:37;14.40;99.90
19970;DHT22;10146;47.754;9.566;2023-07-28T00:07:03;14.40;99.90
19970;DHT22;10146;47.754;9.566;2023-07-28T00:09:29;14.40;99.90
19970;DHT22;10146;47.754;9.566;2023-07-28T00:11:58;14.40;99.90
19970;DHT22;10146;47.754;9.566;2023-07-28T00:14:24;14.30;99.90
19970;DHT22;10146;47.754;9.566;2023-07-28T00:16:51;14.30;99.90
19970;DHT22;10146;47.754;9.566;2023-07-28T00:19:17;14.30;99.90
19970;DHT22;10146;47.754;9.566;2023-07-28T00:21:42;14.30;99.90
19970;DHT22;10146;47.754;9.566;2023-07-28T00:24:08;14.30;99.90
19970;DHT22;10146;47.754;9.566;2023-07-28T00:26:33;14.30;99.90
19970;DHT22;10146;47.754;9.566;2023-07-28T00:28:59;14.20;99.90
19970;DHT22;10146;47.754;9.566;2023-07-28T00:31:25;14.20;99.90
19970;DHT22;10146;47.754;9.566;2023-07-28T00:33:50;14.20;99.90
19970;DHT22;10146;47.754;9.566;2023-07-28T00:36:16;14.20;99.90
19970;DHT22;10146;47.754;9.566;2023-07-28T00:38:41;14.10;99.90
19970;DHT22;10146;47.754;9.566;2023-07-28T00:41:07;14.10;99.90
19970;DHT22;10146;47.754;9.566;2023-07-28T00:43:32;14.10;99.90
19970;DHT22;10146;47.754;9.566;2023-07-28T00:45:58;14.10;99.90
19970;DHT22;10146;47.754;9.566;2023-07-28T00:48:24;14.10;99.90
19970;DHT22;10146;47.754;9.566;2023-07-28T00:50:51;14.10;99.90
19970;DHT22;10146;47.754;9.566;2023-07-28T00:53:18;14.00;99.90
19970;DHT22;10146;47.754;9.566;2023-07-28T00:55:45;14.00;99.90
19970;DHT22;10146;47.754;9.566;2023-07-28T00:58:10;14.00;99.90
19970;DHT22;10146;47.754;9.566;2023-07-28T01:00:36;14.00;99.90
19970;DHT22;10146;47.754;9.566;2023-07-28T01:03:02;14.00;99.90
19970;DHT22;10146;47.754;9.566;2023-07-28T01:06:44;13.90;99.90
19970;DHT22;10146;47.754;9.566;2023-07-28T01:09:08;13.90;99.90
19970;DHT22;10146;47.754;9.566;2023-07-28T01:11:35;13.80;99.90
19970;DHT22;10146;47.754;9.566;2023-07-28T01:14:00;13.80;99.90
19970;DHT22;10146;47.754;9.566;2023-07-28T01:16:26;13.80;99.90
19970;DHT22;10146;47.754;9.566;2023-07-28T01:18:52;13.80;99.90
19970;DHT22;10146;47.754;9.566;2023-07-28T01:21:21;13.90;99.90
19970;DHT22;10146;47.754;9.566;2023-07-28T01:24:20;13.80;99.90
19970;DHT22;10146;47.754;9.566;2023-07-28T01:26:48;13.80;99.90
19970;DHT22;10146;47.754;9.566;2023-07-28T01:29:15;13.80;99.90
19970;DHT22;10146;47.754;9.566;2023-07-28T01:31:41;13.70;99.90
19970;DHT22;10146;47.754;9.566;2023-07-28T01:34:07;13.70;99.90
19970;DHT22;10146;47.754;9.566;2023-07-28T01:36:33;13.70;99.90
19970;DHT22;10146;47.754;9.566;2023-07-28T01:38:58;13.70;99.90
19970;DHT22;10146;47.754;9.566;2023-07-28T01:41:24;13.80;99.90
19970;DHT22;10146;47.754;9.566;2023-07-28T01:43:49;13.80;99.90
19970;DHT22;10146;47.754;9.566;2023-07-28T01:46:15;13.70;99.90
19970;DHT22;10146;47.754;9.566;2023-07-28T01:48:41;13.70;99.90
19970;DHT22;10146;47.754;9.566;2023-07-28T01:51:06;13.70;99.90
19970;DHT22;10146;47.754;9.566;2023-07-28T01:53:32;13.70;99.90
19970;DHT22;10146;47.754;9.566;2023-07-28T01:55:57;13.60;99.90
19970;DHT22;10146;47.754;9.566;2023-07-28T01:58:23;13.60;99.90
19970;DHT22;10146;47.754;9.566;2023-07-28T02:00:49;13.60;99.90
19970;DHT22;10146;47.754;9.566;2023-07-28T02:03:14;13.60;99.90
19970;DHT22;10146;47.754;9.566;2023-07-28T02:05:40;13.60;99.90
19970;DHT22;10146;47.754;9.566;2023-07-28T02:08:05;13.50;99.90
19970;DHT22;10146;47.754;9.566;2023-07-28T02:10:31;13.50;99.90
19970;DHT22;10146;47.754;9.566;2023-07-28T02:12:57;13.50;99.90
19970;DHT22;10146;47.754;9.566;2023-07-28T02:15:22;13.60;99.90
19970;DHT22;10146;47.754;9.566;2023-07-28T02:17:48;13.60;99.90
19970;DHT22;10146;47.754;9.566;2023-07-28T02:20:14;13.60;99.90
19970;DHT22;10146;47.754;9.566;2023-07-28T02:22:41;13.50;99.90
19970;DHT22;10146;47.754;9.566;2023-07-28T02:25:07;13.60;99.90
19970;DHT22;10146;47.754;9.566;2023-07-28T02:27:32;13.50;99.90
19970;DHT22;10146;47.754;9.566;2023-07-28T02:29:58;13.50;99.90
19970;DHT22;10146;47.754;9.566;2023-07-28T02:32:24;13.50;99.90
19970;DHT22;10146;47.754;9.566;2023-07-28T02:34:49;13.50;99.90
19970;DHT22;10146;47.754;9.566;2023-07-28T02:37:15;13.50;99.90
19970;DHT22;10146;47.754;9.566;2023-07-28T02:39:41;13.50;99.90
19970;DHT22;10146;47.754;9.566;2023-07-28T02:42:07;13.50;99.90
19970;DHT22;10146;47.754;9.566;2023-07-28T02:44:32;13.60;99.90
19970;DHT22;10146;47.754;9.566;2023-07-28T02:46:58;13.60;99.90
19970;DHT22;10146;47.754;9.566;2023-07-28T02:49:24;13.60;99.90
19970;DHT22;10146;47.754;9.566;2023-07-28T02:51:49;13.70;99.90
19970;DHT22;10146;47.754;9.566;2023-07-28T02:54:15;13.60;99.90
19970;DHT22;10146;47.754;9.566;2023-07-28T02:56:41;13.60;99.90
19970;DHT22;10146;47.754;9.566;2023-07-28T02:59:06;13.60;99.90
19970;DHT22;10146;47.754;9.566;2023-07-28T03:01:32;13.70;99.90
19970;DHT22;10146;47.754;9.566;2023-07-28T03:04:01;13.70;99.90
19970;DHT22;10146;47.754;9.566;2023-07-28T03:06:27;13.70;99.90
19970;DHT22;10146;47.754;9.566;2023-07-28T03:08:53;13.80;99.90
19970;DHT22;10146;47.754;9.566;2023-07-28T03:11:18;13.80;99.90
19970;DHT22;10146;47.754;9.566;2023-07-28T03:13:44;13.90;99.90
19970;DHT22;10146;47.754;9.566;2023-07-28T03:16:10;13.90;99.90
19970;DHT22;10146;47.754;9.566;2023-07-28T03:18:35;13.90;99.90
19970;DHT22;10146;47.754;9.566;2023-07-28T03:21:01;14.00;99.90
19970;DHT22;10146;47.754;9.566;2023-07-28T03:23:27;14.10;99.90
19970;DHT22;10146;47.754;9.566;2023-07-28T03:25:52;14.10;99.90
19970;DHT22;10146;47.754;9.566;2023-07-28T03:28:18;14.00;99.90
19970;DHT22;10146;47.754;9.566;2023-07-28T03:30:44;14.10;99.90
19970;DHT22;10146;47.754;9.566;2023-07-28T03:33:10;14.10;99.90
19970;DHT22;10146;47.754;9.566;2023-07-28T03:35:35;14.10;99.90
19970;DHT22;10146;47.754;9.566;2023-07-28T03:38:01;14.10;99.90
19970;DHT22;10146;47.754;9.566;2023-07-28T03:40:26;14.10;99.90
19970;DHT22;10146;47.754;9.566;2023-07-28T03:42:52;14.10;99.90
19970;DHT22;10146;47.754;9.566;2023-07-28T03:45:18;14.10;99.90
19970;DHT22;10146;47.754;9.566;2023-07-28T03:47:44;14.10;99.90
19970;DHT22;10146;47.754;9.566;2023-07-28T03:50:10;14.20;99.90
19970;DHT22;10146;47.754;9.566;2023-07-28T03:52:35;14.20;99.90
19970;DHT22;10146;47.754;9.566;2023-07-28T03:55:01;14.10;99.90
19970;DHT22;10146;47.754;9.566;2023-07-28T03:57:27;14.10;99.90
19970;DHT22;10146;47.754;9.566;2023-07-28T03:59:52;14.10;99.90
19970;DHT22;10146;47.754;9.566;2023-07-28T04:02:18;14.10;99.90
19970;DHT22;10146;47.754;9.566;2023-07-28T04:04:43;14.10;99.90
19970;DHT22;10146;47.754;9.566;2023-07-28T04:07:09;14.00;99.90
19970;DHT22;10146;47.754;9.566;2023-07-28T04:09:34;14.00;99.90
19970;DHT22;10146;47.754;9.566;2023-07-28T04:12:00;14.00;99.90
19970;DHT22;10146;47.754;9.566;2023-07-28T04:14:26;14.00;99.90
19970;DHT22;10146;47.754;9.566;2023-07-28T04:16:51;14.00;99.90
19970;DHT22;10146;47.754;9.566;2023-07-28T04:19:17;13.90;99.90
19970;DHT22;10146;47.754;9.566;2023-07-28T04:21:42;13.90;99.90
19970;DHT22;10146;47.754;9.566;2023-07-28T04:24:09;13.90;99.90
19970;DHT22;10146;47.754;9.566;2023-07-28T04:26:35;13.90;99.90
19970;DHT22;10146;47.754;9.566;2023-07-28T04:29:00;13.90;99.90
19970;DHT22;10146;47.754;9.566;2023-07-28T04:31:26;13.90;99.90
19970;DHT22;10146;47.754;9.566;2023-07-28T04:33:52;13.90;99.90
19970;DHT22;10146;47.754;9.566;2023-07-28T04:36:17;14.00;99.90
19970;DHT22;10146;47.754;9.566;2023-07-28T04:38:43;14.00;99.90
19970;DHT22;10146;47.754;9.566;2023-07-28T04:41:09;14.10;99.90
19970;DHT22;10146;47.754;9.566;2023-07-28T04:43:34;14.10;99.90
19970;DHT22;10146;47.754;9.566;2023-07-28T04:46:00;14.10;99.90
19970;DHT22;10146;47.754;9.566;2023-07-28T04:48:27;14.20;99.90
19970;DHT22;10146;47.754;9.566;2023-07-28T04:50:52;14.20;99.90
19970;DHT22;10146;47.754;9.566;2023-07-28T04:53:18;14.30;99.90
19970;DHT22;10146;47.754;9.566;2023-07-28T04:55:43;14.30;99.90
19970;DHT22;10146;47.754;9.566;2023-07-28T04:58:09;14.40;99.90
19970;DHT22;10146;47.754;9.566;2023-07-28T05:00:35;14.40;99.90
19970;DHT22;10146;47.754;9.566;2023-07-28T05:03:00;14.40;99.90
19970;DHT22;10146;47.754;9.566;2023-07-28T05:05:26;14.50;99.90
19970;DHT22;10146;47.754;9.566;2023-07-28T05:07:51;14.50;99.90
19970;DHT22;10146;47.754;9.566;2023-07-28T05:10:17;14.60;99.90
19970;DHT22;10146;47.754;9.566;2023-07-28T05:12:42;14.70;99.90
19970;DHT22;10146;47.754;9.566;2023-07-28T05:15:08;14.70;99.90
19970;DHT22;10146;47.754;9.566;2023-07-28T05:17:36;14.80;99.90
19970;DHT22;10146;47.754;9.566;2023-07-28T05:20:02;14.80;99.90
19970;DHT22;10146;47.754;9.566;2023-07-28T05:22:28;14.90;99.90
19970;DHT22;10146;47.754;9.566;2023-07-28T05:24:54;14.90;99.90
19970;DHT22;10146;47.754;9.566;2023-07-28T05:27:19;15.00;99.90
19970;DHT22;10146;47.754;9.566;2023-07-28T05:29:45;15.00;99.90
19970;DHT22;10146;47.754;9.566;2023-07-28T05:32:10;15.10;99.90
19970;DHT22;10146;47.754;9.566;2023-07-28T05:34:36;15.20;99.90
19970;DHT22;10146;47.754;9.566;2023-07-28T05:37:02;15.30;99.90
19970;DHT22;10146;47.754;9.566;2023-07-28T05:39:27;15.40;99.90
19970;DHT22;10146;47.754;9.566;2023-07-28T05:41:53;15.40;99.90
19970;DHT22;10146;47.754;9.566;2023-07-28T05:44:19;15.50;99.90
19970;DHT22;10146;47.754;9.566;2023-07-28T05:46:45;15.60;99.90
19970;DHT22;10146;47.754;9.566;2023-07-28T05:49:13;15.70;99.90
19970;DHT22;10146;47.754;9.566;2023-07-28T05:51:39;15.80;99.90
19970;DHT22;10146;47.754;9.566;2023-07-28T05:54:04;15.80;99.90
19970;DHT22;10146;47.754;9.566;2023-07-28T05:56:30;15.90;99.90
19970;DHT22;10146;47.754;9.566;2023-07-28T05:58:56;16.00;99.90
19970;DHT22;10146;47.754;9.566;2023-07-28T06:01:22;16.10;99.90
19970;DHT22;10146;47.754;9.566;2023-07-28T06:03:47;16.20;99.90
19970;DHT22;10146;47.754;9.566;2023-07-28T06:06:13;16.20;99.90
19970;DHT22;10146;47.754;9.566;2023-07-28T06:08:39;16.30;99.90
19970;DHT22;10146;47.754;9.566;2023-07-28T06:11:05;16.40;99.90
19970;DHT22;10146;47.754;9.566;2023-07-28T06:13:31;16.50;99.90
19970;DHT22;10146;47.754;9.566;2023-07-28T06:15:58;16.60;99.90
19970;DHT22;10146;47.754;9.566;2023-07-28T06:18:24;16.70;99.90
19970;DHT22;10146;47.754;9.566;2023-07-28T06:20:50;16.70;99.90
19970;DHT22;10146;47.754;9.566;2023-07-28T06:23:16;16.70;99.90
19970;DHT22;10146;47.754;9.566;2023-07-28T06:25:41;16.80;99.90
19970;DHT22;10146;47.754;9.566;2023-07-28T06:28:12;16.90;99.90
19970;DHT22;10146;47.754;9.566;2023-07-28T06:30:38;17.00;99.90
19970;DHT22;10146;47.754;9.566;2023-07-28T06:33:06;17.20;99.90
19970;DHT22;10146;47.754;9.566;2023-07-28T06:35:32;17.40;99.90
19970;DHT22;10146;47.754;9.566;2023-07-28T06:37:58;17.50;99.90
19970;DHT22;10146;47.754;9.566;2023-07-28T06:40:24;17.60;99.90
19970;DHT22;10146;47.754;9.566;2023-07-28T06:42:50;17.70;99.90
19970;DHT22;10146;47.754;9.566;2023-07-28T06:45:16;17.90;99.90
19970;DHT22;10146;47.754;9.566;2023-07-28T06:47:42;18.10;99.90
19970;DHT22;10146;47.754;9.566;2023-07-28T06:50:08;18.40;99.90
19970;DHT22;10146;47.754;9.566;2023-07-28T06:52:34;18.60;99.90
19970;DHT22;10146;47.754;9.566;2023-07-28T06:54:59;18.80;99.90
19970;DHT22;10146;47.754;9.566;2023-07-28T06:57:25;19.10;99.90
19970;DHT22;10146;47.754;9.566;2023-07-28T06:59:51;19.30;99.90
19970;DHT22;10146;47.754;9.566;2023-07-28T07:02:16;19.30;99.90
19970;DHT22;10146;47.754;9.566;2023-07-28T07:04:42;19.20;99.90
19970;DHT22;10146;47.754;9.566;2023-07-28T07:07:08;19.20;99.90
19970;DHT22;10146;47.754;9.566;2023-07-28T07:09:34;19.20;99.90
19970;DHT22;10146;47.754;9.566;2023-07-28T07:12:00;19.20;99.90
19970;DHT22;10146;47.754;9.566;2023-07-28T07:14:25;19.30;99.90
19970;DHT22;10146;47.754;9.566;2023-07-28T07:16:51;19.30;99.90
19970;DHT22;10146;47.754;9.566;2023-07-28T07:19:17;19.30;99.90
19970;DHT22;10146;47.754;9.566;2023-07-28T07:21:42;19.40;99.90
19970;DHT22;10146;47.754;9.566;2023-07-28T07:24:10;19.40;99.90
19970;DHT22;10146;47.754;9.566;2023-07-28T07:26:39;19.40;99.90
19970;DHT22;10146;47.754;9.566;2023-07-28T07:29:05;19.40;99.90
19970;DHT22;10146;47.754;9.566;2023-07-28T07:31:30;19.40;99.90
19970;DHT22;10146;47.754;9.566;2023-07-28T07:33:56;19.40;99.90
19970;DHT22;10146;47.754;9.566;2023-07-28T07:36:22;19.50;99.90
19970;DHT22;10146;47.754;9.566;2023-07-28T07:38:47;19.60;99.90
19970;DHT22;10146;47.754;9.566;2023-07-28T07:41:14;19.70;99.90
19970;DHT22;10146;47.754;9.566;2023-07-28T07:43:53;19.80;99.90
19970;DHT22;10146;47.754;9.566;2023-07-28T07:46:19;20.10;99.90
19970;DHT22;10146;47.754;9.566;2023-07-28T07:48:45;20.30;99.90
19970;DHT22;10146;47.754;9.566;2023-07-28T07:51:12;20.60;99.90
19970;DHT22;10146;47.754;9.566;2023-07-28T07:53:37;20.90;99.90
19970;DHT22;10146;47.754;9.566;2023-07-28T07:56:04;21.20;99.90
19970;DHT22;10146;47.754;9.566;2023-07-28T07:58:30;21.20;99.90
19970;DHT22;10146;47.754;9.566;2023-07-28T08:00:56;21.20;99.90
19970;DHT22;10146;47.754;9.566;2023-07-28T08:03:21;21.10;99.90
19970;DHT22;10146;47.754;9.566;2023-07-28T08:05:47;21.20;99.90
19970;DHT22;10146;47.754;9.566;2023-07-28T08:08:13;21.20;99.90
19970;DHT22;10146;47.754;9.566;2023-07-28T08:10:43;21.30;99.90
19970;DHT22;10146;47.754;9.566;2023-07-28T08:13:08;21.40;99.90
19970;DHT22;10146;47.754;9.566;2023-07-28T08:15:34;21.50;99.90
19970;DHT22;10146;47.754;9.566;2023-07-28T08:17:59;21.60;99.90
19970;DHT22;10146;47.754;9.566;2023-07-28T08:20:25;21.80;99.90
19970;DHT22;10146;47.754;9.566;2023-07-28T08:22:50;21.90;99.90
19970;DHT22;10146;47.754;9.566;2023-07-28T08:25:16;22.10;99.90
19970;DHT22;10146;47.754;9.566;2023-07-28T08:27:42;22.40;99.90
19970;DHT22;10146;47.754;9.566;2023-07-28T08:30:09;22.50;99.90
19970;DHT22;10146;47.754;9.566;2023-07-28T08:32:34;22.60;99.90
19970;DHT22;10146;47.754;9.566;2023-07-28T08:35:00;22.70;99.90
19970;DHT22;10146;47.754;9.566;2023-07-28T08:37:27;22.80;99.90
19970;DHT22;10146;47.754;9.566;2023-07-28T08:39:53;22.90;99.90
19970;DHT22;10146;47.754;9.566;2023-07-28T08:42:21;23.00;99.90
19970;DHT22;10146;47.754;9.566;2023-07-28T08:44:47;23.20;99.90
19970;DHT22;10146;47.754;9.566;2023-07-28T08:47:12;23.30;99.90
19970;DHT22;10146;47.754;9.566;2023-07-28T08:49:38;23.20;99.90
19970;DHT22;10146;47.754;9.566;2023-07-28T08:52:05;23.30;99.90
19970;DHT22;10146;47.754;9.566;2023-07-28T08:54:30;23.40;99.90
19970;DHT22;10146;47.754;9.566;2023-07-28T08:56:59;23.40;99.90
19970;DHT22;10146;47.754;9.566;2023-07-28T08:59:26;23.40;99.90
19970;DHT22;10146;47.754;9.566;2023-07-28T09:01:57;23.50;99.90
19970;DHT22;10146;47.754;9.566;2023-07-28T09:04:26;23.50;99.90
19970;DHT22;10146;47.754;9.566;2023-07-28T09:06:51;23.50;99.90
19970;DHT22;10146;47.754;9.566;2023-07-28T09:09:21;23.50;99.90
19970;DHT22;10146;47.754;9.566;2023-07-28T09:11:51;23.40;99.90
19970;DHT22;10146;47.754;9.566;2023-07-28T09:14:18;23.40;99.90
19970;DHT22;10146;47.754;9.566;2023-07-28T09:16:45;23.30;99.90
19970;DHT22;10146;47.754;9.566;2023-07-28T09:19:11;23.20;99.90
19970;DHT22;10146;47.754;9.566;2023-07-28T09:21:38;23.20;99.90
19970;DHT22;10146;47.754;9.566;2023-07-28T09:24:05;23.10;99.90
19970;DHT22;10146;47.754;9.566;2023-07-28T09:26:48;23.00;99.90
19970;DHT22;10146;47.754;9.566;2023-07-28T09:29:18;23.00;99.90
19970;DHT22;10146;47.754;9.566;2023-07-28T09:31:46;23.00;99.90
19970;DHT22;10146;47.754;9.566;2023-07-28T09:34:12;23.00;99.90
19970;DHT22;10146;47.754;9.566;2023-07-28T09:36:40;23.00;99.90
19970;DHT22;10146;47.754;9.566;2023-07-28T09:39:06;22.90;99.90
19970;DHT22;10146;47.754;9.566;2023-07-28T09:41:35;22.90;99.90
19970;DHT22;10146;47.754;9.566;2023-07-28T09:44:03;22.90;99.90
19970;DHT22;10146;47.754;9.566;2023-07-28T09:46:29;22.90;99.90
19970;DHT22;10146;47.754;9.566;2023-07-28T09:48:59;22.90;99.90
19970;DHT22;10146;47.754;9.566;2023-07-28T09:51:31;23.00;99.90
19970;DHT22;10146;47.754;9.566;2023-07-28T09:54:07;23.10;99.90
19970;DHT22;10146;47.754;9.566;2023-07-28T09:56:35;23.20;99.90
19970;DHT22;10146;47.754;9.566;2023-07-28T09:59:04;23.20;99.90
19970;DHT22;10146;47.754;9.566;2023-07-28T10:01:30;23.30;99.90
19970;DHT22;10146;47.754;9.566;2023-07-28T10:03:56;23.40;99.90
19970;DHT22;10146;47.754;9.566;2023-07-28T10:06:23;23.50;99.90
19970;DHT22;10146;47.754;9.566;2023-07-28T10:08:49;23.70;99.90
19970;DHT22;10146;47.754;9.566;2023-07-28T10:11:15;23.60;99.90
19970;DHT22;10146;47.754;9.566;2023-07-28T10:13:43;23.70;99.90
19970;DHT22;10146;47.754;9.566;2023-07-28T10:16:09;23.80;99.90
19970;DHT22;10146;47.754;9.566;2023-07-28T10:18:36;23.80;99.90
19970;DHT22;10146;47.754;9.566;2023-07-28T10:21:16;23.90;99.90
19970;DHT22;10146;47.754;9.566;2023-07-28T10:23:41;23.80;99.90
19970;DHT22;10146;47.754;9.566;2023-07-28T10:26:09;23.80;99.90
19970;DHT22;10146;47.754;9.566;2023-07-28T10:28:36;24.00;99.90
19970;DHT22;10146;47.754;9.566;2023-07-28T10:31:11;24.10;99.90
19970;DHT22;10146;47.754;9.566;2023-07-28T10:33:39;24.30;99.90
19970;DHT22;10146;47.754;9.566;2023-07-28T10:36:32;24.60;99.90
19970;DHT22;10146;47.754;9.566;2023-07-28T10:41:34;24.80;99.90
19970;DHT22;10146;47.754;9.566;2023-07-28T10:44:01;24.90;99.90
19970;DHT22;10146;47.754;9.566;2023-07-28T10:46:26;24.90;99.90
19970;DHT22;10146;47.754;9.566;2023-07-28T10:48:52;25.00;99.90
19970;DHT22;10146;47.754;9.566;2023-07-28T10:51:26;25.30;99.90
19970;DHT22;10146;47.754;9.566;2023-07-28T10:53:57;25.40;99.90
19970;DHT22;10146;47.754;9.566;2023-07-28T10:56:24;25.70;99.90
19970;DHT22;10146;47.754;9.566;2023-07-28T10:59:01;26.00;99.90
19970;DHT22;10146;47.754;9.566;2023-07-28T11:01:34;25.70;99.90
19970;DHT22;10146;47.754;9.566;2023-07-28T11:04:17;25.50;99.90
19970;DHT22;10146;47.754;9.566;2023-07-28T11:06:47;25.40;99.90
19970;DHT22;10146;47.754;9.566;2023-07-28T11:09:14;25.50;99.90
19970;DHT22;10146;47.754;9.566;2023-07-28T11:11:41;25.60;99.90
19970;DHT22;10146;47.754;9.566;2023-07-28T11:14:08;25.60;99.90
19970;DHT22;10146;47.754;9.566;2023-07-28T11:16:36;25.60;99.90
19970;DHT22;10146;47.754;9.566;2023-07-28T11:19:03;25.60;99.90
19970;DHT22;10146;47.754;9.566;2023-07-28T11:21:29;25.50;99.90
19970;DHT22;10146;47.754;9.566;2023-07-28T11:23:55;25.50;99.90
19970;DHT22;10146;47.754;9.566;2023-07-28T11:26:21;25.50;99.90
19970;DHT22;10146;47.754;9.566;2023-07-28T11:28:48;25.50;99.90
19970;DHT22;10146;47.754;9.566;2023-07-28T11:31:14;25.70;99.90
19970;DHT22;10146;47.754;9.566;2023-07-28T11:33:39;25.70;99.90
19970;DHT22;10146;47.754;9.566;2023-07-28T11:36:06;25.70;99.90
19970;DHT22;10146;47.754;9.566;2023-07-28T11:38:33;25.80;99.90
19970;DHT22;10146;47.754;9.566;2023-07-28T11:41:00;25.80;99.90
19970;DHT22;10146;47.754;9.566;2023-07-28T11:43:27;25.80;99.90
19970;DHT22;10146;47.754;9.566;2023-07-28T11:45:53;25.80;99.90
19970;DHT22;10146;47.754;9.566;2023-07-28T11:48:19;25.90;99.90
19970;DHT22;10146;47.754;9.566;2023-07-28T11:50:44;25.90;99.90
19970;DHT22;10146;47.754;9.566;2023-07-28T11:53:11;25.90;99.90
19970;DHT22;10146;47.754;9.566;2023-07-28T11:55:39;25.90;99.90
19970;DHT22;10146;47.754;9.566;2023-07-28T11:58:06;25.90;99.90
19970;DHT22;10146;47.754;9.566;2023-07-28T12:00:36;25.90;99.90
19970;DHT22;10146;47.754;9.566;2023-07-28T12:03:07;26.00;99.90
19970;DHT22;10146;47.754;9.566;2023-07-28T12:05:41;26.10;99.90
19970;DHT22;10146;47.754;9.566;2023-07-28T12:08:07;26.10;99.90
19970;DHT22;10146;47.754;9.566;2023-07-28T12:10:33;26.20;99.90
19970;DHT22;10146;47.754;9.566;2023-07-28T12:13:07;26.30;99.90
19970;DHT22;10146;47.754;9.566;2023-07-28T12:15:33;26.50;99.90
19970;DHT22;10146;47.754;9.566;2023-07-28T12:18:05;26.40;99.90
19970;DHT22;10146;47.754;9.566;2023-07-28T12:20:50;26.30;99.90
19970;DHT22;10146;47.754;9.566;2023-07-28T12:23:18;26.30;99.90
19970;DHT22;10146;47.754;9.566;2023-07-28T12:25:44;26.30;99.90
19970;DHT22;10146;47.754;9.566;2023-07-28T12:28:10;26.40;99.90
19970;DHT22;10146;47.754;9.566;2023-07-28T12:30:37;26.50;99.90
19970;DHT22;10146;47.754;9.566;2023-07-28T12:33:03;26.50;99.90
19970;DHT22;10146;47.754;9.566;2023-07-28T12:35:30;26.40;99.90
19970;DHT22;10146;47.754;9.566;2023-07-28T12:37:58;26.50;99.90
19970;DHT22;10146;47.754;9.566;2023-07-28T12:40:27;26.50;99.90
19970;DHT22;10146;47.754;9.566;2023-07-28T12:42:53;26.60;99.90
19970;DHT22;10146;47.754;9.566;2023-07-28T12:45:20;26.70;99.90
19970;DHT22;10146;47.754;9.566;2023-07-28T12:47:46;26.80;99.90
19970;DHT22;10146;47.754;9.566;2023-07-28T12:50:12;27.00;99.90
19970;DHT22;10146;47.754;9.566;2023-07-28T12:52:38;27.10;99.90
19970;DHT22;10146;47.754;9.566;2023-07-28T12:55:04;27.30;99.90
19970;DHT22;10146;47.754;9.566;2023-07-28T12:57:30;27.40;99.90
19970;DHT22;10146;47.754;9.566;2023-07-28T12:59:56;27.60;99.90
19970;DHT22;10146;47.754;9.566;2023-07-28T13:02:21;28.00;99.90
19970;DHT22;10146;47.754;9.566;2023-07-28T13:04:47;28.30;99.90
19970;DHT22;10146;47.754;9.566;2023-07-28T13:07:13;28.30;99.90
19970;DHT22;10146;47.754;9.566;2023-07-28T13:09:39;28.00;99.90
19970;DHT22;10146;47.754;9.566;2023-07-28T13:12:04;27.80;99.90
19970;DHT22;10146;47.754;9.566;2023-07-28T13:14:30;27.50;99.90
19970;DHT22;10146;47.754;9.566;2023-07-28T13:16:56;27.30;99.90
19970;DHT22;10146;47.754;9.566;2023-07-28T13:19:21;27.10;99.90
19970;DHT22;10146;47.754;9.566;2023-07-28T13:21:47;27.00;99.90
19970;DHT22;10146;47.754;9.566;2023-07-28T13:24:12;26.80;99.90
19970;DHT22;10146;47.754;9.566;2023-07-28T13:26:38;26.80;99.90
19970;DHT22;10146;47.754;9.566;2023-07-28T13:29:04;26.80;99.90
19970;DHT22;10146;47.754;9.566;2023-07-28T13:31:32;26.70;99.90
19970;DHT22;10146;47.754;9.566;2023-07-28T13:33:58;26.60;99.90
19970;DHT22;10146;47.754;9.566;2023-07-28T13:36:23;26.50;99.90
19970;DHT22;10146;47.754;9.566;2023-07-28T13:38:49;26.70;99.90
19970;DHT22;10146;47.754;9.566;2023-07-28T13:41:15;27.10;99.90
19970;DHT22;10146;47.754;9.566;2023-07-28T13:43:40;27.60;99.90
19970;DHT22;10146;47.754;9.566;2023-07-28T13:46:07;28.20;99.90
19970;DHT22;10146;47.754;9.566;2023-07-28T13:48:33;28.60;98.90
19970;DHT22;10146;47.754;9.566;2023-07-28T13:51:01;28.90;98.70
19970;DHT22;10146;47.754;9.566;2023-07-28T13:53:27;29.10;98.60
19970;DHT22;10146;47.754;9.566;2023-07-28T13:55:53;29.40;96.10
19970;DHT22;10146;47.754;9.566;2023-07-28T13:58:19;29.50;96.10
19970;DHT22;10146;47.754;9.566;2023-07-28T14:00:45;29.80;96.40
19970;DHT22;10146;47.754;9.566;2023-07-28T14:03:10;29.80;94.40
19970;DHT22;10146;47.754;9.566;2023-07-28T14:05:36;30.10;93.80
19970;DHT22;10146;47.754;9.566;2023-07-28T14:08:02;30.20;92.70
19970;DHT22;10146;47.754;9.566;2023-07-28T14:10:27;30.20;92.20
19970;DHT22;10146;47.754;9.566;2023-07-28T14:12:53;29.90;92.50
19970;DHT22;10146;47.754;9.566;2023-07-28T14:15:19;29.60;93.00
19970;DHT22;10146;47.754;9.566;2023-07-28T14:17:44;29.00;93.90
19970;DHT22;10146;47.754;9.566;2023-07-28T14:20:10;28.80;94.50
19970;DHT22;10146;47.754;9.566;2023-07-28T14:22:36;28.90;93.50
19970;DHT22;10146;47.754;9.566;2023-07-28T14:25:02;28.70;92.60
19970;DHT22;10146;47.754;9.566;2023-07-28T14:27:28;28.50;94.40
19970;DHT22;10146;47.754;9.566;2023-07-28T14:29:54;28.50;93.30
19970;DHT22;10146;47.754;9.566;2023-07-28T14:32:19;28.70;93.90
19970;DHT22;10146;47.754;9.566;2023-07-28T14:34:45;29.50;93.00
19970;DHT22;10146;47.754;9.566;2023-07-28T14:37:10;30.10;91.80
19970;DHT22;10146;47.754;9.566;2023-07-28T14:39:36;30.90;91.50
19970;DHT22;10146;47.754;9.566;2023-07-28T14:42:02;31.10;91.10
19970;DHT22;10146;47.754;9.566;2023-07-28T14:44:28;30.40;90.30
19970;DHT22;10146;47.754;9.566;2023-07-28T14:46:54;29.40;92.70
19970;DHT22;10146;47.754;9.566;2023-07-28T14:49:20;28.60;93.10
19970;DHT22;10146;47.754;9.566;2023-07-28T14:51:46;28.20;94.30
19970;DHT22;10146;47.754;9.566;2023-07-28T14:54:11;28.00;94.20
19970;DHT22;10146;47.754;9.566;2023-07-28T14:56:37;27.80;94.40
19970;DHT22;10146;47.754;9.566;2023-07-28T14:59:03;27.50;93.90
19970;DHT22;10146;47.754;9.566;2023-07-28T15:01:29;27.30;94.50
19970;DHT22;10146;47.754;9.566;2023-07-28T15:03:55;27.20;95.20
19970;DHT22;10146;47.754;9.566;2023-07-28T15:06:21;27.20;95.60
19970;DHT22;10146;47.754;9.566;2023-07-28T15:08:46;27.10;96.10
19970;DHT22;10146;47.754;9.566;2023-07-28T15:11:13;27.10;97.40
19970;DHT22;10146;47.754;9.566;2023-07-28T15:13:39;27.10;97.40
19970;DHT22;10146;47.754;9.566;2023-07-28T15:16:05;27.00;96.70
19970;DHT22;10146;47.754;9.566;2023-07-28T15:18:31;26.80;96.60
19970;DHT22;10146;47.754;9.566;2023-07-28T15:20:57;26.70;96.70
19970;DHT22;10146;47.754;9.566;2023-07-28T15:23:25;26.60;97.30
19970;DHT22;10146;47.754;9.566;2023-07-28T15:25:51;26.40;97.90
19970;DHT22;10146;47.754;9.566;2023-07-28T15:28:18;26.20;98.20
19970;DHT22;10146;47.754;9.566;2023-07-28T15:30:44;26.00;99.90